Time;durP1;ratioP1;P1;durP2;ratioP2;P2;SDS_P1;SDS_P2;PMS_P1;PMS_P2;Temp;Humidity;BMP_temperature;BMP_pressure;BME280_temperature;BME280_humidity;BME280_pressure;Samples;Min_cycle;Max_cycle;Signal;HPM_P1;HPM_P2
2024/02/15 00:02:07;;;;;;;6.70;5.80;;;9.20;99.90;;;-141.84;100.00;119224.81;5090337;28;20714;-70
2024/02/15 00:04:35;;;;;;;6.03;5.40;;;9.20;99.90;;;-141.84;100.00;119224.81;5091484;28;20219;-69
2024/02/15 00:07:04;;;;;;;6.23;5.33;;;9.20;99.90;;;-141.84;100.00;119224.81;5091721;28;20796;-70
2024/02/15 00:09:33;;;;;;;6.80;6.07;;;9.20;99.90;;;-141.84;100.00;119224.81;5092133;28;20227;-70
2024/02/15 00:12:02;;;;;;;5.87;5.37;;;9.10;99.90;;;-141.84;100.00;119224.81;5091179;28;20258;-71
2024/02/15 00:14:31;;;;;;;6.07;5.47;;;9.10;99.90;;;-141.84;100.00;119224.81;5090965;28;20228;-71
2024/02/15 00:17:00;;;;;;;6.20;5.67;;;9.10;99.90;;;-141.84;100.00;119224.81;5090530;28;20254;-71
2024/02/15 00:19:29;;;;;;;6.50;5.73;;;9.10;99.90;;;-141.84;100.00;119224.81;5092252;28;20273;-70
2024/02/15 00:22:01;;;;;;;6.00;5.40;;;9.10;99.90;;;-141.84;100.00;119224.81;5082905;28;20511;-70
2024/02/15 00:24:30;;;;;;;6.13;5.00;;;9.10;99.90;;;-141.84;100.00;119224.81;5091150;28;20224;-70
2024/02/15 00:27:02;;;;;;;6.30;5.60;;;9.10;99.90;;;-141.84;100.00;119224.81;5090033;28;20220;-70
2024/02/15 00:29:31;;;;;;;5.90;5.30;;;9.10;99.90;;;-141.84;100.00;119224.81;5089865;28;20226;-70
2024/02/15 00:32:00;;;;;;;5.80;5.03;;;9.20;99.90;;;-141.84;100.00;119224.81;5090401;28;20811;-69
2024/02/15 00:34:28;;;;;;;7.03;5.60;;;9.10;99.90;;;-141.84;100.00;119224.81;5089510;28;20558;-69
2024/02/15 00:36:57;;;;;;;5.67;5.07;;;9.10;99.90;;;-141.84;100.00;119224.81;5090782;28;20703;-68
2024/02/15 00:39:25;;;;;;;6.00;5.20;;;9.10;99.90;;;-141.84;100.00;119224.81;5090350;28;20223;-69
2024/02/15 00:41:55;;;;;;;5.87;5.33;;;9.10;99.90;;;-141.84;100.00;119224.81;5090767;28;20227;-68
2024/02/15 00:44:25;;;;;;;6.00;5.40;;;9.10;99.90;;;-141.84;100.00;119224.81;5091350;28;20512;-70
2024/02/15 00:46:53;;;;;;;5.33;4.83;;;9.20;99.90;;;-141.84;100.00;119224.81;5090693;28;20621;-69
2024/02/15 00:49:22;;;;;;;5.60;4.70;;;9.10;99.90;;;-141.84;100.00;119224.81;5080237;28;20234;-53
2024/02/15 00:51:51;;;;;;;5.57;5.07;;;9.10;99.90;;;-141.84;100.00;119224.81;5087849;28;20220;-53
2024/02/15 00:54:19;;;;;;;5.53;5.03;;;9.10;99.90;;;-141.84;100.00;119224.81;5090808;28;20247;-69
2024/02/15 00:56:47;;;;;;;6.03;5.53;;;9.10;99.90;;;-141.84;100.00;119224.81;5090336;28;20266;-69
2024/02/15 00:59:16;;;;;;;6.17;5.57;;;9.10;99.90;;;-141.84;100.00;119224.81;5090151;28;20230;-70
2024/02/15 01:01:47;;;;;;;5.67;5.17;;;9.20;99.90;;;-141.84;100.00;119224.81;5089679;28;20203;-69
2024/02/15 01:04:16;;;;;;;5.50;4.90;;;9.10;99.90;;;-141.84;100.00;119224.81;5090157;28;20589;-68
2024/02/15 01:06:44;;;;;;;5.57;4.97;;;9.20;99.90;;;-141.84;100.00;119224.81;5089567;28;20313;-68
2024/02/15 01:09:13;;;;;;;5.63;5.13;;;9.10;99.90;;;-141.84;100.00;119224.81;5089926;28;20228;-68
2024/02/15 01:11:42;;;;;;;5.40;4.90;;;9.20;99.90;;;-141.84;100.00;119224.81;5084658;28;20287;-69
2024/02/15 01:14:10;;;;;;;5.30;4.80;;;9.20;99.90;;;-141.84;100.00;119224.81;5090833;28;20311;-69
2024/02/15 01:16:39;;;;;;;5.80;4.77;;;9.20;99.90;;;-141.84;100.00;119224.81;5081549;28;20214;-68
2024/02/15 01:19:08;;;;;;;5.20;4.67;;;9.30;99.90;;;-141.84;100.00;119224.81;5090264;28;20215;-69
2024/02/15 01:21:38;;;;;;;4.80;4.40;;;9.30;99.90;;;-141.84;100.00;119224.81;5089851;28;20220;-69
2024/02/15 01:24:07;;;;;;;4.37;3.97;;;9.30;99.90;;;-141.84;100.00;119224.81;5089360;28;20309;-69
2024/02/15 01:26:35;;;;;;;5.57;4.73;;;9.30;99.90;;;-141.84;100.00;119224.81;5090001;28;20255;-68
2024/02/15 01:29:04;;;;;;;5.00;4.60;;;9.30;99.90;;;-141.84;100.00;119224.81;5089671;28;20236;-69
2024/02/15 01:31:33;;;;;;;5.00;4.60;;;9.30;99.90;;;-141.84;100.00;119224.81;5090081;28;20282;-69
2024/02/15 01:34:01;;;;;;;7.23;4.97;;;9.30;99.90;;;-141.84;100.00;119224.81;5089419;28;20269;-68
2024/02/15 01:36:31;;;;;;;4.50;4.10;;;9.20;99.90;;;-141.84;100.00;119224.81;5089330;28;20219;-69
2024/02/15 01:39:00;;;;;;;4.43;4.13;;;9.30;99.90;;;-141.84;100.00;119224.81;5089363;28;20486;-68
2024/02/15 01:41:28;;;;;;;6.53;4.60;;;9.30;99.90;;;-141.84;100.00;119224.81;5089672;28;20755;-69
2024/02/15 01:43:56;;;;;;;4.80;4.10;;;9.30;99.90;;;-141.84;100.00;119224.81;5089471;28;20239;-69
2024/02/15 01:46:25;;;;;;;5.50;4.37;;;9.40;99.90;;;-141.84;100.00;119224.81;5090804;28;20312;-68
2024/02/15 01:48:56;;;;;;;4.60;4.20;;;9.30;99.90;;;-141.84;100.00;119224.81;5089379;28;20592;-69
2024/02/15 01:51:26;;;;;;;4.77;4.37;;;9.30;99.90;;;-141.84;100.00;119224.81;5082782;28;20618;-70
2024/02/15 01:53:56;;;;;;;5.37;4.30;;;9.20;99.90;;;-141.84;100.00;119224.81;5089850;28;20219;-69
2024/02/15 01:56:27;;;;;;;4.90;4.40;;;9.20;99.90;;;-141.84;100.00;119224.81;5089277;28;20278;-69
2024/02/15 01:58:55;;;;;;;4.20;3.80;;;9.20;99.90;;;-141.84;100.00;119224.81;5090232;28;20242;-69
2024/02/15 02:01:24;;;;;;;4.77;4.27;;;9.20;99.90;;;-141.84;100.00;119224.81;5089509;28;20577;-68
2024/02/15 02:03:52;;;;;;;4.37;4.00;;;9.20;99.90;;;-141.84;100.00;119224.81;5089062;28;20231;-68
2024/02/15 02:06:21;;;;;;;5.23;4.13;;;9.20;99.90;;;-141.84;100.00;119224.81;5089220;28;20318;-69
2024/02/15 02:08:49;;;;;;;5.17;3.90;;;9.30;99.90;;;-141.84;100.00;119224.81;5089961;28;20269;-68
2024/02/15 02:11:19;;;;;;;5.43;4.13;;;9.20;99.90;;;-141.84;100.00;119224.81;5089406;28;20240;-69
2024/02/15 02:13:48;;;;;;;4.30;3.83;;;9.30;99.90;;;-141.84;100.00;119224.81;5036628;28;20247;-69
2024/02/15 02:16:31;;;;;;;4.53;3.70;;;9.40;99.90;;;-141.84;100.00;119224.81;5091332;28;20409;-68
2024/02/15 02:19:07;;;;;;;3.60;3.30;;;9.40;99.90;;;-141.84;100.00;119224.81;5093654;28;20223;-69
2024/02/15 02:21:39;;;;;;;5.13;3.70;;;9.30;99.90;;;-141.84;100.00;119224.81;5093524;28;20238;-69
2024/02/15 02:24:19;;;;;;;3.70;3.30;;;9.40;99.90;;;-141.84;100.00;119224.81;5093233;28;20623;-68
2024/02/15 02:26:49;;;;;;;3.50;3.20;;;9.40;99.90;;;-141.84;100.00;119224.81;5092792;28;20314;-70
2024/02/15 02:29:18;;;;;;;3.50;3.20;;;9.40;99.90;;;-141.84;100.00;119224.81;5085169;28;20231;-70
2024/02/15 02:31:46;;;;;;;3.53;3.23;;;9.40;99.90;;;-141.84;100.00;119224.81;5093240;28;20196;-68
2024/02/15 02:34:15;;;;;;;3.33;3.03;;;9.40;99.90;;;-141.84;100.00;119224.81;5093902;28;20665;-69
2024/02/15 02:36:45;;;;;;;3.67;3.30;;;9.40;99.90;;;-141.84;100.00;119224.81;5092890;28;20216;-69
2024/02/15 02:39:13;;;;;;;3.83;3.50;;;9.40;99.90;;;-141.84;100.00;119224.81;5093470;28;20224;-69
2024/02/15 02:41:42;;;;;;;3.80;3.40;;;9.40;99.90;;;-141.84;100.00;119224.81;5091726;28;20228;-69
2024/02/15 02:44:12;;;;;;;3.47;3.17;;;9.40;99.90;;;-141.84;100.00;119224.81;5093113;28;20269;-69
2024/02/15 02:46:42;;;;;;;3.33;3.03;;;9.40;99.90;;;-141.84;100.00;119224.81;5092069;28;20269;-68
2024/02/15 02:49:11;;;;;;;4.17;3.10;;;9.40;99.90;;;-141.84;100.00;119224.81;5093295;28;20262;-68
2024/02/15 02:51:40;;;;;;;3.30;3.00;;;9.40;99.90;;;-141.84;100.00;119224.81;5092824;28;20224;-68
2024/02/15 02:54:08;;;;;;;3.57;3.03;;;9.40;99.90;;;-141.84;100.00;119224.81;5093195;28;20224;-69
2024/02/15 02:56:37;;;;;;;5.10;3.27;;;9.40;99.90;;;-141.84;100.00;119224.81;5088249;28;20279;-68
2024/02/15 02:59:07;;;;;;;4.20;3.57;;;9.40;99.90;;;-141.84;100.00;119224.81;5091880;28;20223;-69
2024/02/15 03:01:36;;;;;;;3.00;2.80;;;9.40;99.90;;;-141.84;100.00;119224.81;5093031;28;20262;-68
2024/02/15 03:04:05;;;;;;;3.70;3.40;;;9.40;99.90;;;-141.84;100.00;119224.81;5091749;28;20212;-69
2024/02/15 03:06:33;;;;;;;2.77;2.57;;;9.40;99.90;;;-141.84;100.00;119224.81;5093127;28;20289;-69
2024/02/15 03:09:06;;;;;;;3.50;3.20;;;9.40;99.90;;;-141.84;100.00;119224.81;5093539;28;20577;-69
2024/02/15 03:11:35;;;;;;;3.30;3.00;;;9.50;99.90;;;-141.84;100.00;119224.81;5091497;28;20618;-69
2024/02/15 03:14:05;;;;;;;3.73;3.43;;;9.50;99.90;;;-141.84;100.00;119224.81;5091598;28;20297;-69
2024/02/15 03:16:33;;;;;;;2.97;2.77;;;9.40;99.90;;;-141.84;100.00;119224.81;5084728;28;20238;-68
2024/02/15 03:19:03;;;;;;;2.87;2.67;;;9.50;99.90;;;-141.84;100.00;119224.81;5091754;28;20283;-69
2024/02/15 03:21:31;;;;;;;3.07;2.87;;;9.40;99.90;;;-141.84;100.00;119224.81;5092209;28;20403;-67
2024/02/15 03:24:00;;;;;;;2.80;2.60;;;9.40;99.90;;;-141.84;100.00;119224.81;5091585;28;20223;-68
2024/02/15 03:26:33;;;;;;;3.30;3.00;;;9.40;99.90;;;-141.84;100.00;119224.81;5090842;28;20235;-70
2024/02/15 03:29:02;;;;;;;4.13;2.90;;;9.40;99.90;;;-141.84;100.00;119224.81;5091391;28;20232;-69
2024/02/15 03:31:30;;;;;;;3.13;2.83;;;9.40;99.90;;;-141.84;100.00;119224.81;5092980;28;20192;-68
2024/02/15 03:34:03;;;;;;;4.70;2.87;;;9.40;99.90;;;-141.84;100.00;119224.81;5091989;28;20216;-68
2024/02/15 03:36:31;;;;;;;3.27;3.00;;;9.40;99.90;;;-141.84;100.00;119224.81;5082803;28;20224;-69
2024/02/15 03:39:00;;;;;;;2.87;2.47;;;9.40;99.90;;;-141.84;100.00;119224.81;5092361;28;20242;-67
2024/02/15 03:41:32;;;;;;;2.77;2.57;;;9.30;99.90;;;-141.84;100.00;119224.81;5090691;28;20715;-68
2024/02/15 03:44:01;;;;;;;3.23;2.93;;;9.30;99.90;;;-141.84;100.00;119224.81;5083653;28;20748;-69
2024/02/15 03:46:29;;;;;;;3.50;3.13;;;9.30;99.90;;;-141.84;100.00;119224.81;5091266;28;20273;-68
2024/02/15 03:48:58;;;;;;;3.70;3.37;;;9.30;99.90;;;-141.84;100.00;119224.81;5090606;28;20695;-67
2024/02/15 03:51:28;;;;;;;2.90;2.70;;;9.20;99.90;;;-141.84;100.00;119224.81;5090036;28;20700;-69
2024/02/15 03:53:58;;;;;;;3.10;2.83;;;9.30;99.90;;;-141.84;100.00;119224.81;5091176;28;20220;-69
2024/02/15 03:56:27;;;;;;;3.43;3.13;;;9.30;99.90;;;-141.84;100.00;119224.81;5090107;28;20280;-68
2024/02/15 03:58:57;;;;;;;3.27;2.90;;;9.30;99.90;;;-141.84;100.00;119224.81;5092880;28;20289;-69
2024/02/15 04:01:27;;;;;;;3.17;2.97;;;9.30;99.90;;;-141.84;100.00;119224.81;5091438;28;20296;-69
2024/02/15 04:03:55;;;;;;;3.40;2.90;;;9.30;99.90;;;-141.84;100.00;119224.81;5082746;28;20231;-69
2024/02/15 04:06:24;;;;;;;3.47;3.17;;;9.40;99.90;;;-141.84;100.00;119224.81;5090555;28;20235;-68
2024/02/15 04:08:54;;;;;;;3.87;3.10;;;9.40;99.90;;;-141.84;100.00;119224.81;5090551;28;20222;-68
2024/02/15 04:11:22;;;;;;;3.10;2.80;;;9.30;99.90;;;-141.84;100.00;119224.81;5090370;28;20220;-68
2024/02/15 04:13:51;;;;;;;3.27;2.97;;;9.40;99.90;;;-141.84;100.00;119224.81;5091100;28;20287;-68
2024/02/15 04:16:20;;;;;;;3.33;3.03;;;9.30;99.90;;;-141.84;100.00;119224.81;5090481;28;20283;-69
2024/02/15 04:18:49;;;;;;;5.00;3.60;;;9.30;99.90;;;-141.84;100.00;119224.81;5090187;28;20216;-69
2024/02/15 04:21:19;;;;;;;3.77;3.00;;;9.30;99.90;;;-141.84;100.00;119224.81;5090352;28;20243;-68
2024/02/15 04:23:47;;;;;;;3.47;3.23;;;9.40;99.90;;;-141.84;100.00;119224.81;5089771;28;20228;-68
2024/02/15 04:26:19;;;;;;;3.40;3.10;;;9.40;99.90;;;-141.84;100.00;119224.81;5089923;28;20224;-68
2024/02/15 04:28:48;;;;;;;3.67;3.20;;;9.40;99.90;;;-141.84;100.00;119224.81;5034291;28;20209;-68
2024/02/15 04:31:16;;;;;;;3.73;3.33;;;9.40;99.90;;;-141.84;100.00;119224.81;5091587;28;20200;-67
2024/02/15 04:33:48;;;;;;;3.73;3.43;;;9.40;99.90;;;-141.84;100.00;119224.81;5090854;28;20219;-68
2024/02/15 04:36:23;;;;;;;4.63;3.27;;;9.40;99.90;;;-141.84;100.00;119224.81;5089817;28;20719;-70
2024/02/15 04:38:51;;;;;;;3.70;3.40;;;9.40;99.90;;;-141.84;100.00;119224.81;5091706;28;20769;-68
2024/02/15 04:41:23;;;;;;;3.40;3.10;;;9.40;99.90;;;-141.84;100.00;119224.81;5091613;28;20271;-68
2024/02/15 04:43:52;;;;;;;3.30;3.00;;;9.40;99.90;;;-141.84;100.00;119224.81;5091737;28;20215;-67
2024/02/15 04:46:21;;;;;;;3.37;3.07;;;9.50;99.90;;;-141.84;100.00;119224.81;5093052;28;20224;-69
2024/02/15 04:48:50;;;;;;;4.70;3.80;;;9.50;99.90;;;-141.84;100.00;119224.81;5090471;28;20304;-69
2024/02/15 04:51:24;;;;;;;3.37;3.07;;;9.40;99.90;;;-141.84;100.00;119224.81;5090254;28;20701;-68
2024/02/15 04:53:52;;;;;;;2.83;2.63;;;9.40;99.90;;;-141.84;100.00;119224.81;5091700;28;20236;-68
2024/02/15 04:56:23;;;;;;;4.97;2.90;;;9.40;99.90;;;-141.84;100.00;119224.81;5100422;28;20224;-69
2024/02/15 04:58:51;;;;;;;4.07;2.83;;;9.40;99.90;;;-141.84;100.00;119224.81;5091772;28;20280;-70
2024/02/15 05:01:20;;;;;;;3.10;2.90;;;9.40;99.90;;;-141.84;100.00;119224.81;5093033;28;20255;-68
2024/02/15 05:03:48;;;;;;;2.90;2.70;;;9.40;99.90;;;-141.84;100.00;119224.81;5081598;28;20274;-68
2024/02/15 05:06:16;;;;;;;2.73;2.53;;;9.40;99.90;;;-141.84;100.00;119224.81;5090662;28;20239;-69
2024/02/15 05:08:45;;;;;;;2.93;2.63;;;9.40;99.90;;;-141.84;100.00;119224.81;5091082;28;20567;-68
2024/02/15 05:11:17;;;;;;;2.70;2.50;;;9.40;99.90;;;-141.84;100.00;119224.81;5084543;28;20216;-68
2024/02/15 05:13:50;;;;;;;2.57;2.37;;;9.40;99.90;;;-141.84;100.00;119224.81;5090809;28;20215;-68
2024/02/15 05:16:20;;;;;;;4.10;3.70;;;9.40;99.90;;;-141.84;100.00;119224.81;5090713;28;20200;-67
2024/02/15 05:18:48;;;;;;;3.93;3.17;;;9.40;99.90;;;-141.84;100.00;119224.81;5089851;28;20227;-68
2024/02/15 05:21:16;;;;;;;3.00;2.80;;;9.40;99.90;;;-141.84;100.00;119224.81;5090767;28;20310;-68
2024/02/15 05:23:45;;;;;;;3.13;2.83;;;9.40;99.90;;;-141.84;100.00;119224.81;5090430;28;20231;-68
2024/02/15 05:26:16;;;;;;;2.73;2.53;;;9.30;99.90;;;-141.84;100.00;119224.81;5090777;28;20273;-67
2024/02/15 05:28:44;;;;;;;2.63;2.43;;;9.30;99.90;;;-141.84;100.00;119224.81;5090680;28;20311;-68
2024/02/15 05:31:16;;;;;;;3.50;2.50;;;9.30;99.90;;;-141.84;100.00;119224.81;5082690;28;20192;-67
2024/02/15 05:33:47;;;;;;;3.80;3.17;;;9.30;99.90;;;-141.84;100.00;119224.81;5088817;28;20212;-68
2024/02/15 05:36:19;;;;;;;3.67;3.37;;;9.30;99.90;;;-141.84;100.00;119224.81;5089181;28;20216;-69
2024/02/15 05:38:51;;;;;;;3.33;2.60;;;9.20;99.90;;;-141.84;100.00;119224.81;5089755;28;20281;-68
2024/02/15 05:41:21;;;;;;;3.40;3.10;;;9.20;99.90;;;-141.84;100.00;119224.81;5089717;28;20235;-67
2024/02/15 05:43:52;;;;;;;2.90;2.70;;;9.20;99.90;;;-141.84;100.00;119224.81;5090157;28;20249;-69
2024/02/15 05:46:21;;;;;;;2.73;2.43;;;9.20;99.90;;;-141.84;100.00;119224.81;5090398;28;20196;-68
2024/02/15 05:48:52;;;;;;;2.80;2.60;;;9.40;99.90;;;-141.84;100.00;119224.81;5092012;28;20251;-68
2024/02/15 05:51:21;;;;;;;2.77;2.57;;;9.30;99.90;;;-141.84;100.00;119224.81;5094737;28;20281;-68
2024/02/15 05:53:49;;;;;;;3.40;3.10;;;9.30;99.90;;;-141.84;100.00;119224.81;5094862;28;20336;-67
2024/02/15 05:56:18;;;;;;;3.23;2.87;;;9.20;99.90;;;-141.84;100.00;119224.81;5095741;28;20579;-69
2024/02/15 05:58:46;;;;;;;2.90;2.70;;;9.20;99.90;;;-141.84;100.00;119224.81;5094905;28;20216;-68
2024/02/15 06:01:14;;;;;;;3.87;2.60;;;9.40;99.90;;;-141.84;100.00;119224.81;5091259;28;20228;-68
2024/02/15 06:03:44;;;;;;;2.93;2.73;;;9.30;99.90;;;-141.84;100.00;119224.81;5092237;28;20617;-69
2024/02/15 06:06:13;;;;;;;3.60;3.07;;;9.30;99.90;;;-141.84;100.00;119224.81;5093016;28;20224;-68
2024/02/15 06:08:42;;;;;;;3.13;2.80;;;9.30;99.90;;;-141.84;100.00;119224.81;5094695;28;20270;-69
2024/02/15 06:11:10;;;;;;;3.23;2.73;;;9.20;99.90;;;-141.84;100.00;119224.81;5094216;28;20226;-69
2024/02/15 06:13:39;;;;;;;2.93;2.73;;;9.10;99.90;;;-141.84;100.00;119224.81;5093345;28;20549;-68
2024/02/15 06:16:09;;;;;;;4.30;3.00;;;9.10;99.90;;;-141.84;100.00;119224.81;5093307;28;20686;-68
2024/02/15 06:18:38;;;;;;;3.07;2.80;;;9.10;99.90;;;-141.84;100.00;119224.81;5093393;28;20589;-68
2024/02/15 06:21:08;;;;;;;2.97;2.77;;;9.10;99.90;;;-141.84;100.00;119224.81;5093418;28;20316;-68
2024/02/15 06:23:37;;;;;;;3.03;2.63;;;9.00;99.90;;;-141.84;100.00;119224.81;5093196;28;20718;-68
2024/02/15 06:26:06;;;;;;;3.40;3.10;;;9.00;99.90;;;-141.84;100.00;119224.81;5093483;28;20285;-68
2024/02/15 06:39:43;;;;;;;2.70;2.50;;;9.10;99.90;;;-141.84;100.00;119224.81;5085583;28;20340;-68
2024/02/15 06:42:15;;;;;;;3.07;2.57;;;9.10;99.90;;;-141.84;100.00;119224.81;5092698;28;20216;-68
2024/02/15 06:44:44;;;;;;;3.17;2.40;;;9.20;99.90;;;-141.84;100.00;119224.81;5092609;28;20783;-68
2024/02/15 06:47:16;;;;;;;2.37;2.17;;;9.20;99.90;;;-141.84;100.00;119224.81;5096265;28;20274;-68
2024/02/15 06:49:50;;;;;;;2.70;2.50;;;9.10;99.90;;;-141.84;100.00;119224.81;5096334;28;20196;-68
2024/02/15 06:52:20;;;;;;;2.40;2.20;;;9.20;99.90;;;-141.84;100.00;119224.81;5092486;28;20317;-68
2024/02/15 06:54:49;;;;;;;3.03;2.30;;;9.20;99.90;;;-141.84;100.00;119224.81;5092460;28;20643;-67
2024/02/15 06:57:17;;;;;;;3.10;2.30;;;9.30;99.90;;;-141.84;100.00;119224.81;5092404;28;20307;-68
2024/02/15 06:59:47;;;;;;;2.53;2.33;;;9.30;99.90;;;-141.84;100.00;119224.81;5091159;28;20220;-71
2024/02/15 07:02:16;;;;;;;3.87;2.60;;;9.40;99.90;;;-141.84;100.00;119224.81;5092936;28;20604;-69
2024/02/15 07:04:46;;;;;;;3.23;2.93;;;9.50;99.90;;;-141.84;100.00;119224.81;5082718;28;20207;-67
2024/02/15 07:07:16;;;;;;;2.70;2.23;;;9.60;99.90;;;-141.84;100.00;119224.81;5091782;28;20224;-69
2024/02/15 07:09:47;;;;;;;2.37;2.17;;;9.70;99.90;;;-141.84;100.00;119224.81;5090904;28;20305;-69
2024/02/15 07:12:15;;;;;;;2.10;1.90;;;9.70;99.90;;;-141.84;100.00;119224.81;5091601;28;20227;-68
2024/02/15 07:14:44;;;;;;;5.33;2.33;;;9.80;99.90;;;-141.84;100.00;119224.81;5091486;28;20222;-69
2024/02/15 07:17:12;;;;;;;2.93;2.20;;;9.80;99.90;;;-141.84;100.00;119224.81;5091418;28;20243;-68
2024/02/15 07:19:44;;;;;;;2.40;2.13;;;9.80;99.90;;;-141.84;100.00;119224.81;5091334;28;20228;-67
2024/02/15 07:22:12;;;;;;;4.50;2.17;;;9.90;99.90;;;-141.84;100.00;119224.81;5092489;28;20187;-69
2024/02/15 07:24:41;;;;;;;2.23;1.97;;;9.90;99.90;;;-141.84;100.00;119224.81;5092004;28;20245;-68
2024/02/15 07:27:11;;;;;;;2.43;2.23;;;9.90;99.90;;;-141.84;100.00;119224.81;5087353;28;20230;-69
2024/02/15 07:29:40;;;;;;;2.27;2.03;;;9.90;99.90;;;-141.84;100.00;119224.81;5091163;28;20251;-68
2024/02/15 07:32:09;;;;;;;2.30;2.10;;;10.00;99.90;;;-141.84;100.00;119224.81;5083821;28;20323;-68
2024/02/15 07:34:37;;;;;;;3.70;2.40;;;10.00;99.90;;;-141.84;100.00;119224.81;5092364;28;20339;-67
2024/02/15 07:37:09;;;;;;;3.93;2.20;;;10.20;99.90;;;-141.84;100.00;119224.81;5093282;28;20203;-68
2024/02/15 07:39:37;;;;;;;2.60;2.40;;;10.20;99.90;;;-141.84;100.00;119224.81;5091680;28;20572;-69
2024/02/15 07:42:08;;;;;;;3.40;2.27;;;10.30;99.90;;;-141.84;100.00;119224.81;5091552;28;20220;-68
2024/02/15 07:44:39;;;;;;;2.70;2.50;;;10.50;99.90;;;-141.84;100.00;119224.81;5093599;28;20776;-68
2024/02/15 07:47:08;;;;;;;2.40;2.20;;;10.60;99.90;;;-141.84;100.00;119224.81;5090756;28;20239;-67
2024/02/15 07:49:37;;;;;;;2.10;1.90;;;10.60;99.90;;;-141.84;100.00;119224.81;5091284;28;20246;-69
2024/02/15 07:52:06;;;;;;;2.50;2.30;;;10.70;99.90;;;-141.84;100.00;119224.81;5083191;28;20656;-68
2024/02/15 07:54:35;;;;;;;2.70;2.20;;;10.70;99.90;;;-141.84;100.00;119224.81;5091365;28;20619;-68
2024/02/15 07:57:03;;;;;;;3.80;2.50;;;10.60;99.90;;;-141.84;100.00;119224.81;5091299;28;20215;-69
2024/02/15 07:59:32;;;;;;;3.53;2.50;;;10.60;99.90;;;-141.84;100.00;119224.81;5091832;28;20269;-68
2024/02/15 08:02:02;;;;;;;2.47;2.27;;;10.70;99.90;;;-141.84;100.00;119224.81;5091436;28;20311;-69
2024/02/15 08:04:31;;;;;;;3.67;2.30;;;10.70;99.90;;;-141.84;100.00;119222.75;5090533;28;20571;-68
2024/02/15 08:07:00;;;;;;;2.80;2.27;;;10.80;99.90;;;-141.84;100.00;119224.81;5090702;28;20258;-68
2024/02/15 08:09:28;;;;;;;2.90;2.60;;;10.80;99.90;;;-141.84;100.00;119224.81;5090720;28;20703;-69
2024/02/15 08:11:56;;;;;;;2.70;2.47;;;10.80;99.90;;;-141.84;100.00;119224.81;5090440;28;20224;-69
2024/02/15 08:14:26;;;;;;;3.07;2.77;;;10.80;99.90;;;-141.84;100.00;119224.81;5090755;28;20219;-68
2024/02/15 08:16:55;;;;;;;3.87;2.63;;;10.80;99.90;;;-141.84;100.00;119224.81;5090478;28;20611;-67
2024/02/15 08:19:28;;;;;;;3.00;2.70;;;10.80;99.90;;;-141.84;100.00;118156.06;5089942;28;20188;-68
2024/02/15 08:21:57;;;;;;;3.38;2.72;;;10.90;99.90;;;-141.84;100.00;118422.72;5086031;28;20314;-68
2024/02/15 08:24:25;;;;;;;3.20;2.30;;;10.90;99.90;;;-141.84;100.00;119224.81;5091704;28;20607;-68
2024/02/15 08:26:54;;;;;;;3.67;2.87;;;10.90;99.90;;;-141.84;100.00;119224.81;5091807;28;20219;-69
2024/02/15 08:29:25;;;;;;;3.20;2.90;;;10.90;99.90;;;-141.84;100.00;119224.81;5091589;28;20227;-68
2024/02/15 08:31:54;;;;;;;4.37;3.00;;;10.90;99.90;;;-141.84;100.00;119224.81;5092830;28;20279;-68
2024/02/15 08:34:26;;;;;;;4.10;3.13;;;10.90;99.90;;;-141.84;100.00;118956.03;5088154;28;20648;-68
2024/02/15 08:36:54;;;;;;;3.53;2.80;;;11.10;99.90;;;-141.84;100.00;114691.31;5094065;28;20726;-69
2024/02/15 08:39:25;;;;;;;3.75;2.55;;;11.10;99.90;;;-141.84;100.00;115224.16;5094869;28;20216;-68
2024/02/15 08:41:54;;;;;;;3.30;3.00;;;11.20;99.90;;;-141.84;100.00;116823.13;5093286;28;20596;-50
2024/02/15 08:44:25;;;;;;;3.57;2.80;;;11.30;99.90;;;-141.84;100.00;114424.91;5094166;28;20315;-48
2024/02/15 08:46:53;;;;;;;3.20;2.90;;;11.40;99.90;;;-141.84;100.00;115224.16;5042365;28;20232;-52
2024/02/15 08:49:27;;;;;;;4.27;2.80;;;11.40;99.90;;;-141.84;100.00;109100.59;5094075;28;20224;-54
2024/02/15 08:51:55;;;;;;;2.73;2.53;;;11.40;99.90;;;-141.84;100.00;109898.81;5093036;28;20220;-54
2024/02/15 08:54:26;;;;;;;4.57;3.28;;;11.50;99.90;;;-141.84;100.00;112826.88;5094662;28;20246;-68
2024/02/15 08:56:55;;;;;;;4.13;3.03;;;11.50;99.90;;;-141.84;98.22;104048.94;5093964;28;20246;-69
2024/02/15 08:59:25;;;;;;;3.42;2.92;;;11.60;99.90;;;-141.84;100.00;109366.66;5085862;28;20238;-69
2024/02/15 09:01:54;;;;;;;4.20;2.60;;;11.50;99.90;;;-141.84;100.00;108834.56;5093770;28;20597;-68
2024/02/15 09:04:27;;;;;;;5.68;3.25;;;11.60;99.90;;;-141.84;97.58;104846.16;5094409;28;20203;-51
2024/02/15 09:06:55;;;;;;;3.90;3.10;;;11.70;99.90;;;-141.84;99.48;105909.34;5093475;28;20315;-68
2024/02/15 09:09:25;;;;;;;3.27;2.97;;;11.60;99.90;;;-141.84;98.00;104314.66;5094086;28;20227;-69
2024/02/15 09:11:53;;;;;;;3.20;3.00;;;11.70;99.90;;;-141.84;100.00;109100.59;5093939;28;20227;-68
2024/02/15 09:14:25;;;;;;;3.65;2.83;;;11.70;99.90;;;-141.84;100.00;111229.50;5094273;28;20228;-68
2024/02/15 09:16:53;;;;;;;2.80;2.60;;;11.70;99.90;;;-141.84;100.00;112826.88;5093888;28;20686;-67
2024/02/15 09:19:26;;;;;;;6.22;3.20;;;11.80;99.90;;;-141.84;100.00;112560.63;5094060;28;21460;-69
2024/02/15 09:21:55;;;;;;;3.20;2.85;;;11.90;99.90;;;-141.84;91.44;91049.97;5076369;28;20298;-68
2024/02/15 09:24:26;;;;;;;3.35;3.05;;;12.10;99.90;;;-141.84;90.67;87872.91;5093464;28;20215;-68
2024/02/15 09:26:54;;;;;;;4.10;3.38;;;12.20;99.90;;;-141.84;86.61;73079.69;5093850;28;20220;-67
2024/02/15 09:29:29;;;;;;;3.22;2.92;;;12.50;99.90;;;-141.84;88.40;79148.88;5093545;28;20232;-68
2024/02/15 09:31:58;;;;;;;4.28;3.08;;;12.60;99.90;;;-141.84;89.37;84698.34;5092776;28;20521;-68
2024/02/15 09:34:32;;;;;;;3.30;2.70;;;12.60;99.90;;;-141.84;86.85;74134.56;5094517;28;20188;-68
2024/02/15 09:37:05;;;;;;;3.92;3.10;;;12.80;99.90;;;-141.84;87.58;76508.97;5093623;28;20328;-68
2024/02/15 09:39:33;;;;;;;3.40;3.10;;;12.80;99.90;;;-141.84;82.28;49157.03;5093746;28;20212;-67
2024/02/15 09:42:05;;;;;;;5.15;2.65;;;12.90;99.90;;;-141.84;84.05;60180.38;5093836;28;20250;-68
2024/02/15 09:44:34;;;;;;;3.88;2.97;;;13.00;99.90;;;-141.84;85.01;66493.19;5093055;28;20220;-69
2024/02/15 09:47:08;;;;;;;4.43;3.22;;;12.90;99.90;;;-141.84;85.42;68863.09;5093015;28;20235;-68
2024/02/15 09:49:47;;;;;;;3.88;2.85;;;;;;;-141.84;88.11;77036.81;5093204;28;20750;-71
2024/02/15 09:52:17;;;;;;;3.13;2.58;;;12.70;99.90;;;-141.84;90.92;87608.25;5094057;28;20268;-68
2024/02/15 09:54:52;;;;;;;4.75;2.97;;;12.70;99.90;;;-141.84;88.56;80733.66;5093032;28;20253;-69
2024/02/15 09:57:27;;;;;;;3.10;2.80;;;;;;;-141.84;89.77;85756.25;5092927;28;20729;-67
2024/02/15 09:59:57;;;;;;;5.90;2.85;;;;;;;-141.84;87.44;77300.78;5093149;28;20738;-66
2024/02/15 10:02:32;;;;;;;3.78;2.80;;;;;;;-141.84;88.00;79677.06;5084646;28;20231;-68
2024/02/15 10:05:06;;;;;;;5.40;3.15;;;12.80;99.90;;;-141.84;88.83;81526.28;5086524;28;20231;-67
2024/02/15 10:07:34;;;;;;;4.05;3.17;;;13.00;99.90;;;-141.84;90.03;86285.31;5086764;28;20929;-69
2024/02/15 10:10:17;;;;;;;3.30;3.00;;;;;;;-141.84;89.88;85491.75;5095281;28;20254;-55
2024/02/15 10:12:53;;;;;;;3.72;3.00;;;13.00;99.90;;;-141.84;86.83;75981.22;5086233;28;20318;-68
2024/02/15 10:15:34;;;;;;;3.65;3.20;;;13.10;99.90;;;-141.84;87.26;76508.97;5094856;28;20216;-68
2024/02/15 10:18:09;;;;;;;3.15;2.67;;;13.20;99.90;;;-141.84;88.36;80997.84;5080409;28;20228;-68
2024/02/15 10:20:58;;;;;;;5.63;3.00;;;13.20;99.90;;;-141.84;89.48;84698.34;5094605;28;20237;-69
2024/02/15 10:23:30;;;;;;;3.08;2.67;;;13.20;99.90;;;-141.84;84.77;65703.56;5086164;28;20234;-67